Time;durP1;ratioP1;P1;durP2;ratioP2;P2;SDS_P1;SDS_P2;PMS_P1;PMS_P2;Temp;Humidity;BMP_temperature;BMP_pressure;BME280_temperature;BME280_humidity;BME280_pressure;Samples;Min_cycle;Max_cycle;Signal;HPM_P1;HPM_P2
2023/06/27 00:02:23;;;;;;;0.40;0.40;;;15.10;99.90;;;;;;5133995;28;20100;-70
2023/06/27 00:04:49;;;;;;;0.40;0.40;;;15.10;99.90;;;;;;5134476;28;20047;-70
2023/06/27 00:07:14;;;;;;;0.40;0.40;;;15.10;99.90;;;;;;5134020;28;20035;-71
2023/06/27 00:09:40;;;;;;;0.40;0.40;;;15.00;99.90;;;;;;5133753;27;20066;-71
2023/06/27 00:12:09;;;;;;;0.40;0.40;;;15.00;99.90;;;;;;5137251;27;20047;-71
2023/06/27 00:14:36;;;;;;;0.43;0.43;;;14.90;99.90;;;;;;5138048;27;20031;-71
2023/06/27 00:17:04;;;;;;;0.40;0.40;;;14.90;99.90;;;;;;5137645;27;20074;-71
2023/06/27 00:19:31;;;;;;;0.40;0.40;;;14.90;99.90;;;;;;5137530;27;20118;-71
2023/06/27 00:21:56;;;;;;;0.40;0.40;;;14.80;99.90;;;;;;5137529;27;20035;-71
2023/06/27 00:24:23;;;;;;;0.40;0.40;;;14.80;99.90;;;;;;5137528;27;20467;-70
2023/06/27 00:26:49;;;;;;;;;;;14.70;99.90;;;;;;5137784;27;20100;-70
2023/06/27 00:29:14;;;;;;;0.40;0.40;;;14.80;99.90;;;;;;5137659;27;19915;-71
2023/06/27 00:31:40;;;;;;;0.40;0.40;;;14.80;99.90;;;;;;5137832;27;20081;-70
2023/06/27 00:34:06;;;;;;;0.40;0.40;;;14.80;99.90;;;;;;5137404;27;20031;-71
2023/06/27 00:36:32;;;;;;;0.40;0.40;;;14.70;99.90;;;;;;5136980;27;20495;-70
2023/06/27 00:38:57;;;;;;;0.30;0.30;;;14.60;99.90;;;;;;5137162;27;20268;-71
2023/06/27 00:41:23;;;;;;;0.40;0.40;;;14.60;99.90;;;;;;5137161;27;20382;-70
2023/06/27 00:43:49;;;;;;;0.40;0.40;;;14.60;99.90;;;;;;5136944;27;20027;-70
2023/06/27 00:46:26;;;;;;;0.40;0.40;;;14.60;99.90;;;;;;5137002;27;20039;-70
2023/06/27 00:48:51;;;;;;;0.30;0.30;;;14.50;99.90;;;;;;5137094;27;20039;-71
2023/06/27 00:51:17;;;;;;;0.30;0.30;;;14.50;99.90;;;;;;5136988;27;20050;-71
2023/06/27 00:53:43;;;;;;;0.40;0.40;;;14.50;99.90;;;;;;5136941;27;20035;-71
2023/06/27 00:56:10;;;;;;;0.40;0.40;;;14.40;99.90;;;;;;5136817;27;20027;-70
2023/06/27 00:58:36;;;;;;;0.30;0.30;;;14.50;99.90;;;;;;5153305;27;20083;-71
2023/06/27 01:01:03;;;;;;;0.40;0.40;;;14.40;99.90;;;;;;5137176;27;20058;-69
2023/06/27 01:03:32;;;;;;;0.40;0.40;;;14.40;99.90;;;;;;5136476;27;20093;-71
2023/06/27 01:06:01;;;;;;;0.40;0.40;;;14.40;99.90;;;;;;5136815;27;20084;-71
2023/06/27 01:08:36;;;;;;;0.40;0.40;;;14.30;99.90;;;;;;5136437;27;20086;-70
2023/06/27 01:11:16;;;;;;;0.40;0.40;;;14.30;99.90;;;;;;5136525;27;20086;-70
2023/06/27 01:13:50;;;;;;;0.40;0.40;;;14.30;99.90;;;;;;5136517;27;20060;-70
2023/06/27 01:16:19;;;;;;;0.40;0.40;;;14.30;99.90;;;;;;5136556;27;20034;-71
2023/06/27 01:18:46;;;;;;;0.40;0.40;;;14.20;99.90;;;;;;5136380;27;20070;-70
2023/06/27 01:21:12;;;;;;;0.40;0.40;;;14.20;99.90;;;;;;5136262;27;20058;-70
2023/06/27 01:23:51;;;;;;;0.40;0.40;;;14.20;99.90;;;;;;5136130;27;20046;-71
2023/06/27 01:26:17;;;;;;;0.40;0.40;;;14.10;99.90;;;;;;5136269;27;20043;-70
2023/06/27 01:28:42;;;;;;;0.40;0.40;;;14.10;99.90;;;;;;5136536;27;20144;-71
2023/06/27 01:31:23;;;;;;;0.47;0.47;;;14.10;99.90;;;;;;5152496;27;20042;-70
2023/06/27 01:34:02;;;;;;;0.40;0.40;;;14.10;99.90;;;;;;5135880;27;20043;-70
2023/06/27 01:36:41;;;;;;;0.40;0.40;;;14.10;99.90;;;;;;5136121;27;20074;-71
2023/06/27 01:39:12;;;;;;;0.40;0.40;;;14.10;99.90;;;;;;5136080;27;20064;-70
2023/06/27 01:41:40;;;;;;;0.40;0.40;;;14.10;99.90;;;;;;5135686;27;20110;-71
2023/06/27 01:44:08;;;;;;;0.50;0.50;;;14.00;99.90;;;;;;5135931;27;20049;-70
2023/06/27 01:46:35;;;;;;;0.40;0.40;;;14.00;99.90;;;;;;5135863;27;20046;-71
2023/06/27 01:49:02;;;;;;;0.50;0.50;;;14.00;99.90;;;;;;5136190;27;20383;-71
2023/06/27 01:51:28;;;;;;;0.40;0.40;;;14.00;99.90;;;;;;5135793;27;20046;-71
2023/06/27 01:53:54;;;;;;;0.70;0.70;;;14.00;99.90;;;;;;5135444;27;20489;-71
2023/06/27 01:56:20;;;;;;;0.40;0.40;;;13.90;99.90;;;;;;5135850;27;20043;-71
2023/06/27 01:58:46;;;;;;;0.40;0.40;;;13.90;99.90;;;;;;5135629;27;20035;-71
2023/06/27 02:01:12;;;;;;;0.40;0.40;;;13.90;99.90;;;;;;5135506;27;20086;-71
2023/06/27 02:03:38;;;;;;;0.50;0.50;;;13.90;99.90;;;;;;5135511;27;20082;-71
2023/06/27 02:06:03;;;;;;;0.40;0.40;;;13.90;99.90;;;;;;5135798;27;20039;-71
2023/06/27 02:08:29;;;;;;;0.43;0.43;;;13.80;99.90;;;;;;5135444;27;20051;-71
2023/06/27 02:10:55;;;;;;;0.50;0.50;;;13.90;99.90;;;;;;5135408;27;20035;-71
2023/06/27 02:13:20;;;;;;;0.50;0.50;;;13.90;99.90;;;;;;5135506;27;20523;-71
2023/06/27 02:15:46;;;;;;;0.50;0.50;;;13.80;99.90;;;;;;5135170;27;20039;-70
2023/06/27 02:18:11;;;;;;;0.50;0.50;;;13.80;99.90;;;;;;5135700;27;20039;-71
2023/06/27 02:20:37;;;;;;;0.50;0.50;;;13.80;99.90;;;;;;5135235;27;20498;-71
2023/06/27 02:23:03;;;;;;;0.67;0.67;;;13.80;99.90;;;;;;5134787;27;20486;-70
2023/06/27 02:25:28;;;;;;;0.50;0.50;;;13.80;99.90;;;;;;5135290;27;20045;-71
2023/06/27 02:27:54;;;;;;;0.52;0.52;;;13.70;99.90;;;;;;5135156;27;20035;-71
2023/06/27 02:30:20;;;;;;;0.50;0.50;;;13.80;99.90;;;;;;5116676;27;20474;-70
2023/06/27 02:32:45;;;;;;;0.50;0.50;;;13.70;99.90;;;;;;5135348;27;20043;-70
2023/06/27 02:35:15;;;;;;;0.50;0.50;;;13.70;99.90;;;;;;5134853;27;20058;-71
2023/06/27 02:37:41;;;;;;;0.50;0.50;;;13.70;99.90;;;;;;5135295;27;20066;-70
2023/06/27 02:40:07;;;;;;;0.50;0.50;;;13.70;99.90;;;;;;5134866;27;20035;-70
2023/06/27 02:42:32;;;;;;;2.20;1.50;;;13.60;99.90;;;;;;5134870;27;20070;-71
2023/06/27 02:44:58;;;;;;;0.40;0.40;;;13.60;99.90;;;;;;5134724;27;20108;-71
2023/06/27 02:47:24;;;;;;;0.50;0.50;;;13.60;99.90;;;;;;5134554;27;20126;-71
2023/06/27 02:49:49;;;;;;;0.60;0.60;;;13.60;99.90;;;;;;5134984;27;20042;-71
2023/06/27 02:52:15;;;;;;;0.50;0.50;;;13.60;99.90;;;;;;5134697;27;20042;-70
2023/06/27 02:54:41;;;;;;;0.50;0.50;;;13.60;99.90;;;;;;5134733;27;20042;-71
2023/06/27 02:57:06;;;;;;;0.50;0.50;;;13.60;99.90;;;;;;5134788;27;20422;-71
2023/06/27 02:59:32;;;;;;;0.60;0.60;;;13.50;99.90;;;;;;5134949;27;20042;-70
2023/06/27 03:01:57;;;;;;;0.60;0.60;;;13.50;99.90;;;;;;5134636;27;20035;-71
2023/06/27 03:04:24;;;;;;;0.50;0.50;;;13.50;99.90;;;;;;5134324;27;20050;-71
2023/06/27 03:06:50;;;;;;;3.40;1.17;;;13.50;99.90;;;;;;5134495;28;20047;-71
2023/06/27 03:09:18;;;;;;;0.50;0.50;;;13.50;99.90;;;;;;5134445;28;20031;-70
2023/06/27 03:11:43;;;;;;;0.50;0.50;;;13.40;99.90;;;;;;5134085;28;20475;-70
2023/06/27 03:14:09;;;;;;;0.60;0.60;;;13.50;99.90;;;;;;5134438;28;20039;-70
2023/06/27 03:16:35;;;;;;;0.50;0.50;;;13.60;99.90;;;;;;5134897;28;20050;-70
2023/06/27 03:19:00;;;;;;;0.55;0.55;;;13.40;99.90;;;;;;5134380;28;20035;-70
2023/06/27 03:21:26;;;;;;;0.60;0.60;;;13.40;99.90;;;;;;5134393;28;20126;-70
2023/06/27 03:23:52;;;;;;;0.50;0.50;;;13.40;99.90;;;;;;5134319;28;20031;-70
2023/06/27 03:26:17;;;;;;;0.50;0.50;;;13.40;99.90;;;;;;5134458;28;20035;-70
2023/06/27 03:28:43;;;;;;;0.50;0.50;;;13.40;99.90;;;;;;5134323;28;20031;-71
2023/06/27 03:31:08;;;;;;;0.50;0.50;;;13.40;99.90;;;;;;5134609;28;20031;-71
2023/06/27 03:33:34;;;;;;;0.40;0.40;;;13.50;99.90;;;;;;5134955;28;20035;-70
2023/06/27 03:36:00;;;;;;;0.50;0.50;;;13.50;99.90;;;;;;5134285;28;20485;-71
2023/06/27 03:38:25;;;;;;;0.50;0.50;;;13.40;99.90;;;;;;5134329;28;20047;-71
2023/06/27 03:40:51;;;;;;;0.50;0.50;;;13.50;99.90;;;;;;5134294;28;20035;-70
2023/06/27 03:43:17;;;;;;;0.50;0.50;;;13.50;99.90;;;;;;5134302;28;20450;-71
2023/06/27 03:45:42;;;;;;;0.50;0.50;;;13.50;99.90;;;;;;5135382;27;20117;-70
2023/06/27 03:48:08;;;;;;;0.50;0.50;;;13.50;99.90;;;;;;5138601;27;20042;-71
2023/06/27 03:50:34;;;;;;;0.50;0.50;;;13.50;99.90;;;;;;5138514;27;20035;-71
2023/06/27 03:53:03;;;;;;;0.50;0.50;;;13.50;99.90;;;;;;5138694;27;20039;-70
2023/06/27 03:55:29;;;;;;;0.40;0.40;;;13.60;99.90;;;;;;5138023;27;20280;-71
2023/06/27 03:57:54;;;;;;;0.50;0.50;;;13.60;99.90;;;;;;5138042;27;20035;-71
2023/06/27 04:00:21;;;;;;;0.60;0.60;;;13.60;99.90;;;;;;5137894;27;20359;-71
2023/06/27 04:02:46;;;;;;;0.67;0.63;;;13.60;99.90;;;;;;5137508;27;20046;-71
2023/06/27 04:05:12;;;;;;;0.60;0.60;;;13.70;99.90;;;;;;5138414;27;20326;-71
2023/06/27 04:07:40;;;;;;;0.60;0.60;;;13.70;99.90;;;;;;5137907;27;20039;-71
2023/06/27 04:10:06;;;;;;;0.40;0.40;;;13.70;99.90;;;;;;5119702;27;20092;-71
2023/06/27 04:12:32;;;;;;;0.50;0.50;;;13.80;99.90;;;;;;5137407;27;20433;-71
2023/06/27 04:14:57;;;;;;;0.52;0.52;;;13.80;99.90;;;;;;5137659;27;20463;-70
2023/06/27 04:17:23;;;;;;;0.50;0.50;;;13.80;99.90;;;;;;5137608;27;20065;-71
2023/06/27 04:19:49;;;;;;;0.60;0.60;;;13.90;99.90;;;;;;5137686;27;20035;-71
2023/06/27 04:22:14;;;;;;;0.47;0.47;;;13.90;99.90;;;;;;5137662;27;20035;-70
2023/06/27 04:24:40;;;;;;;0.50;0.50;;;13.90;99.90;;;;;;5137417;27;20042;-71
2023/06/27 04:27:08;;;;;;;0.50;0.50;;;14.00;99.90;;;;;;5137563;27;20466;-70
2023/06/27 04:29:34;;;;;;;0.50;0.50;;;14.00;99.90;;;;;;5137246;27;20031;-71
2023/06/27 04:32:00;;;;;;;0.50;0.50;;;14.00;99.90;;;;;;5137375;27;20043;-71
2023/06/27 04:34:25;;;;;;;0.50;0.50;;;14.00;99.90;;;;;;5137260;27;20035;-71
2023/06/27 04:36:52;;;;;;;0.50;0.50;;;14.10;99.90;;;;;;5136994;27;20046;-72
2023/06/27 04:39:17;;;;;;;0.40;0.40;;;14.10;99.90;;;;;;5137005;27;20118;-70
2023/06/27 04:41:43;;;;;;;0.50;0.50;;;14.10;99.90;;;;;;5137325;27;20093;-71
2023/06/27 04:44:09;;;;;;;0.50;0.50;;;14.20;99.90;;;;;;5137066;27;20042;-71
2023/06/27 04:46:34;;;;;;;0.40;0.40;;;14.20;99.90;;;;;;5137139;27;20042;-70
2023/06/27 04:49:00;;;;;;;0.50;0.50;;;14.30;99.90;;;;;;5137039;27;20368;-71
2023/06/27 04:51:29;;;;;;;0.40;0.40;;;14.30;99.90;;;;;;5119026;27;20038;-71
2023/06/27 04:53:55;;;;;;;0.40;0.40;;;14.30;99.90;;;;;;5136773;27;20471;-71
2023/06/27 04:56:22;;;;;;;0.40;0.40;;;14.40;99.90;;;;;;5136542;27;20035;-71
2023/06/27 04:58:48;;;;;;;0.60;0.60;;;14.40;99.90;;;;;;5136477;27;20479;-70
2023/06/27 05:01:13;;;;;;;0.47;0.47;;;14.50;99.90;;;;;;5137453;27;20042;-71
2023/06/27 05:03:39;;;;;;;0.40;0.40;;;14.50;99.90;;;;;;5136350;27;20043;-70
2023/06/27 05:06:05;;;;;;;0.50;0.50;;;14.50;99.90;;;;;;5136789;27;20043;-71
2023/06/27 05:08:32;;;;;;;0.50;0.50;;;14.60;99.90;;;;;;5136606;27;20039;-71
2023/06/27 05:10:57;;;;;;;0.40;0.40;;;14.60;99.90;;;;;;5136516;27;20471;-70
2023/06/27 05:13:23;;;;;;;0.40;0.40;;;14.70;99.90;;;;;;5136414;27;20126;-70
2023/06/27 05:15:49;;;;;;;0.40;0.40;;;14.80;99.90;;;;;;5137137;27;20039;-71
2023/06/27 05:18:15;;;;;;;0.40;0.40;;;14.80;99.90;;;;;;5136447;27;20161;-71
2023/06/27 05:20:45;;;;;;;1.30;1.20;;;14.90;99.90;;;;;;5136438;27;20493;-70
2023/06/27 05:23:11;;;;;;;0.40;0.40;;;15.00;99.90;;;;;;5135919;27;20039;-71
2023/06/27 05:25:37;;;;;;;0.40;0.40;;;15.10;99.90;;;;;;5136366;27;20047;-70
2023/06/27 05:28:03;;;;;;;0.40;0.40;;;15.30;99.90;;;;;;5136218;27;20587;-71
2023/06/27 05:30:32;;;;;;;1.70;1.60;;;15.60;99.90;;;;;;5136225;27;20167;-71
2023/06/27 05:32:58;;;;;;;0.50;0.50;;;16.00;99.90;;;;;;5135863;27;20463;-71
2023/06/27 05:35:24;;;;;;;0.40;0.40;;;16.40;99.90;;;;;;5152204;27;20050;-71
2023/06/27 05:37:50;;;;;;;0.40;0.40;;;16.90;99.90;;;;;;5136173;27;20039;-71
2023/06/27 05:40:16;;;;;;;5.93;1.63;;;17.40;99.90;;;;;;5136176;27;20035;-71
2023/06/27 05:42:41;;;;;;;0.50;0.50;;;17.80;99.90;;;;;;5135885;27;20486;-71
2023/06/27 05:45:08;;;;;;;0.40;0.40;;;18.20;99.90;;;;;;5136234;27;20043;-71
2023/06/27 05:47:33;;;;;;;0.40;0.40;;;18.50;99.90;;;;;;5135885;27;20043;-71
2023/06/27 05:49:59;;;;;;;0.40;0.40;;;18.90;99.90;;;;;;5135900;27;20555;-71
2023/06/27 05:52:24;;;;;;;0.40;0.40;;;19.20;99.90;;;;;;5135808;27;20050;-71
2023/06/27 05:54:51;;;;;;;0.40;0.40;;;19.50;99.90;;;;;;5135714;27;20047;-70
2023/06/27 05:57:18;;;;;;;0.40;0.40;;;19.70;99.90;;;;;;5135583;27;20031;-71
2023/06/27 05:59:44;;;;;;;0.40;0.40;;;19.80;99.90;;;;;;5135639;27;20035;-71
2023/06/27 06:02:09;;;;;;;0.80;0.80;;;20.10;99.90;;;;;;5135284;27;20046;-71
2023/06/27 06:04:35;;;;;;;0.60;0.60;;;20.30;99.90;;;;;;5135553;27;20043;-71
2023/06/27 06:07:03;;;;;;;0.40;0.40;;;20.30;99.90;;;;;;5135983;27;20118;-71
2023/06/27 06:09:29;;;;;;;0.50;0.50;;;20.30;99.90;;;;;;5134663;27;20047;-71
2023/06/27 06:11:55;;;;;;;0.30;0.30;;;20.50;99.90;;;;;;5135468;27;20417;-71
2023/06/27 06:14:21;;;;;;;0.47;0.47;;;20.60;99.90;;;;;;5135351;27;20101;-71
2023/06/27 06:16:48;;;;;;;0.40;0.40;;;20.90;99.90;;;;;;5135104;27;20127;-71
2023/06/27 06:19:14;;;;;;;0.30;0.30;;;21.10;99.90;;;;;;5135788;27;20039;-71
2023/06/27 06:21:40;;;;;;;0.80;0.57;;;21.20;99.90;;;;;;5117438;27;20120;-71
2023/06/27 06:24:08;;;;;;;0.40;0.40;;;21.40;99.90;;;;;;5135151;27;20035;-71
2023/06/27 06:26:35;;;;;;;0.55;0.55;;;21.40;99.90;;;;;;5135121;27;20151;-70
2023/06/27 06:29:01;;;;;;;0.40;0.40;;;21.50;99.90;;;;;;5135467;27;20039;-71
2023/06/27 06:31:27;;;;;;;0.40;0.40;;;21.60;99.90;;;;;;5135327;27;20047;-71
2023/06/27 06:33:53;;;;;;;0.30;0.30;;;21.50;99.90;;;;;;5135010;27;20050;-71
2023/06/27 06:36:19;;;;;;;0.30;0.30;;;21.60;99.90;;;;;;5135186;27;20129;-72
2023/06/27 06:38:45;;;;;;;0.30;0.30;;;21.60;99.90;;;;;;5135050;27;20051;-71
2023/06/27 06:41:10;;;;;;;0.30;0.30;;;21.60;99.90;;;;;;5134868;27;20035;-71
2023/06/27 06:43:36;;;;;;;0.20;0.20;;;21.70;99.90;;;;;;5134783;27;20493;-70
2023/06/27 06:46:02;;;;;;;0.30;0.30;;;21.70;99.90;;;;;;5134792;27;20043;-71
2023/06/27 06:48:27;;;;;;;0.30;0.30;;;21.70;99.90;;;;;;5134784;27;20050;-71
2023/06/27 06:50:53;;;;;;;0.40;0.40;;;21.70;99.90;;;;;;5134787;27;20049;-71
2023/06/27 06:53:19;;;;;;;0.73;0.73;;;21.70;99.90;;;;;;5134693;27;20035;-71
2023/06/27 06:55:45;;;;;;;0.30;0.30;;;21.60;99.90;;;;;;5134557;27;20116;-71
2023/06/27 06:58:11;;;;;;;0.30;0.30;;;21.70;99.90;;;;;;5134671;27;20043;-71
2023/06/27 07:00:37;;;;;;;0.30;0.30;;;21.80;99.90;;;;;;5134656;27;20041;-71
2023/06/27 07:03:20;;;;;;;0.50;0.50;;;21.90;99.90;;;;;;5134755;27;20481;-71
2023/06/27 07:05:46;;;;;;;0.30;0.30;;;22.00;99.90;;;;;;5134671;27;20083;-71
2023/06/27 07:08:11;;;;;;;0.30;0.30;;;22.10;99.90;;;;;;5134680;28;20050;-72
2023/06/27 07:10:37;;;;;;;0.33;0.33;;;22.10;99.90;;;;;;5134260;28;20423;-71
2023/06/27 07:13:04;;;;;;;0.30;0.30;;;22.20;99.90;;;;;;5134569;28;20035;-71
2023/06/27 07:15:29;;;;;;;0.20;0.20;;;22.20;99.90;;;;;;5134503;28;20087;-71
2023/06/27 07:17:56;;;;;;;0.20;0.20;;;22.30;99.90;;;;;;5134946;28;20043;-71
2023/06/27 07:20:22;;;;;;;0.30;0.30;;;22.40;99.90;;;;;;5137158;27;20051;-71
2023/06/27 07:22:48;;;;;;;0.20;0.20;;;22.40;99.90;;;;;;5138904;27;20122;-72
2023/06/27 07:25:14;;;;;;;0.30;0.30;;;22.30;99.90;;;;;;5138847;27;20042;-71
2023/06/27 07:27:42;;;;;;;0.30;0.30;;;22.30;99.90;;;;;;5139208;27;20035;-72
2023/06/27 07:30:08;;;;;;;0.30;0.30;;;22.30;99.90;;;;;;5120383;27;20088;-72
2023/06/27 07:32:34;;;;;;;0.28;0.28;;;22.20;99.90;;;;;;5138846;27;20039;-70
2023/06/27 07:34:59;;;;;;;0.30;0.30;;;22.30;99.90;;;;;;5138846;27;20074;-72
2023/06/27 07:37:25;;;;;;;0.30;0.30;;;22.40;99.90;;;;;;5138664;27;20041;-72
2023/06/27 07:39:50;;;;;;;0.47;0.47;;;22.40;99.90;;;;;;5154636;27;20050;-72
2023/06/27 07:42:17;;;;;;;0.30;0.30;;;22.40;99.90;;;;;;5154868;27;20550;-71
2023/06/27 07:44:43;;;;;;;0.30;0.30;;;22.40;99.90;;;;;;5119935;27;20046;-72
2023/06/27 07:47:09;;;;;;;0.30;0.30;;;22.40;99.90;;;;;;5138428;27;20035;-71
2023/06/27 07:49:37;;;;;;;0.30;0.30;;;22.50;99.90;;;;;;5138562;27;20091;-71
2023/06/27 07:52:07;;;;;;;0.38;0.38;;;22.50;99.90;;;;;;5138236;27;20096;-72
2023/06/27 07:54:33;;;;;;;0.30;0.30;;;22.50;99.80;;;;;;5138432;27;20046;-72
2023/06/27 07:56:59;;;;;;;0.32;0.32;;;22.60;99.90;;;;;;5138653;27;20042;-72
2023/06/27 07:59:24;;;;;;;0.30;0.30;;;22.90;99.90;;;;;;5137942;27;20039;-72
2023/06/27 08:01:50;;;;;;;0.30;0.30;;;23.00;99.20;;;;;;5138187;27;20064;-71
2023/06/27 08:04:15;;;;;;;0.30;0.30;;;23.00;99.30;;;;;;5138262;27;20044;-71
2023/06/27 08:06:42;;;;;;;0.30;0.30;;;23.00;99.80;;;;;;5138085;27;20043;-72
2023/06/27 08:09:08;;;;;;;0.30;0.30;;;23.00;99.70;;;;;;5137716;27;20042;-72
2023/06/27 08:11:34;;;;;;;0.30;0.30;;;22.90;99.50;;;;;;5137960;27;20035;-72
2023/06/27 08:14:00;;;;;;;0.40;0.40;;;22.60;98.70;;;;;;5137918;27;20047;-72
2023/06/27 08:16:25;;;;;;;0.40;0.40;;;22.40;99.70;;;;;;5138163;27;20039;-71
2023/06/27 08:18:51;;;;;;;0.30;0.30;;;22.30;99.00;;;;;;5137852;27;20078;-71
2023/06/27 08:21:17;;;;;;;0.30;0.30;;;22.20;99.10;;;;;;5137798;27;20427;-71
2023/06/27 08:23:42;;;;;;;0.30;0.30;;;22.20;99.70;;;;;;5137568;27;20046;-72
2023/06/27 08:26:12;;;;;;;0.30;0.30;;;22.20;99.80;;;;;;5137710;27;20031;-72
2023/06/27 08:28:38;;;;;;;0.30;0.30;;;22.00;99.60;;;;;;5137614;27;20071;-71
2023/06/27 08:31:04;;;;;;;0.30;0.30;;;21.90;99.90;;;;;;5136799;27;20046;-71
2023/06/27 08:33:29;;;;;;;0.30;0.30;;;21.80;99.70;;;;;;5137535;27;20031;-72
2023/06/27 08:35:55;;;;;;;0.30;0.30;;;21.70;99.60;;;;;;5137466;27;20043;-72
2023/06/27 08:38:21;;;;;;;0.30;0.30;;;21.90;99.90;;;;;;5137444;27;20047;-71
2023/06/27 08:40:52;;;;;;;0.30;0.30;;;22.20;99.90;;;;;;5137411;27;20067;-72
2023/06/27 08:43:17;;;;;;;0.20;0.20;;;22.40;98.30;;;;;;5137023;27;20505;-71
2023/06/27 08:45:43;;;;;;;0.30;0.30;;;22.60;97.40;;;;;;5137314;27;20067;-72
2023/06/27 08:48:11;;;;;;;0.30;0.30;;;22.70;97.70;;;;;;5137304;27;20042;-72
2023/06/27 08:50:41;;;;;;;0.30;0.30;;;22.90;97.40;;;;;;5137251;27;20383;-71
2023/06/27 08:53:17;;;;;;;0.30;0.30;;;23.10;97.60;;;;;;5137695;27;20050;-72
2023/06/27 08:56:07;;;;;;;0.50;0.50;;;23.40;98.00;;;;;;5137192;27;20031;-72
2023/06/27 08:58:43;;;;;;;0.30;0.30;;;23.80;97.10;;;;;;5137043;27;20135;-72
2023/06/27 09:01:10;;;;;;;0.30;0.30;;;23.80;95.90;;;;;;5137060;27;20106;-71
2023/06/27 09:03:35;;;;;;;0.30;0.30;;;23.90;95.80;;;;;;5137520;27;20084;-71
2023/06/27 09:06:05;;;;;;;0.30;0.30;;;23.90;95.60;;;;;;5153095;27;20055;-72
2023/06/27 09:08:32;;;;;;;0.20;0.20;;;23.80;94.40;;;;;;5118601;27;20076;-71
2023/06/27 09:10:59;;;;;;;0.20;0.20;;;23.80;94.30;;;;;;5137142;27;20043;-71
2023/06/27 09:13:25;;;;;;;0.20;0.20;;;23.80;94.20;;;;;;5136782;27;20045;-71
2023/06/27 09:15:51;;;;;;;0.20;0.20;;;23.80;94.50;;;;;;5136693;27;20125;-72
2023/06/27 09:18:17;;;;;;;0.20;0.20;;;24.00;94.70;;;;;;5136723;27;20056;-71
2023/06/27 09:20:43;;;;;;;0.20;0.20;;;24.20;94.60;;;;;;5136742;27;20035;-72
2023/06/27 09:23:10;;;;;;;0.28;0.28;;;24.30;93.60;;;;;;5136632;27;20043;-71
2023/06/27 09:25:35;;;;;;;0.30;0.30;;;24.10;94.00;;;;;;5136550;27;20046;-71
2023/06/27 09:28:30;;;;;;;0.30;0.30;;;24.00;93.20;;;;;;5136850;27;20035;-71
2023/06/27 09:30:57;;;;;;;0.20;0.20;;;24.00;93.90;;;;;;5118625;27;20043;-72
2023/06/27 09:33:23;;;;;;;0.35;0.35;;;24.20;94.30;;;;;;5136316;27;20039;-71
2023/06/27 09:35:50;;;;;;;0.20;0.20;;;24.30;93.60;;;;;;5136358;27;20039;-71
2023/06/27 09:38:18;;;;;;;0.20;0.20;;;24.40;93.40;;;;;;5136180;27;20471;-72
2023/06/27 09:40:43;;;;;;;0.20;0.20;;;24.50;93.40;;;;;;5135902;27;20092;-72
2023/06/27 09:43:11;;;;;;;0.20;0.20;;;24.40;92.80;;;;;;5116637;27;20070;-72
2023/06/27 09:45:37;;;;;;;0.20;0.20;;;24.30;93.10;;;;;;5136144;27;20110;-71
2023/06/27 09:48:07;;;;;;;0.20;0.20;;;24.20;92.80;;;;;;5136029;27;20090;-72
2023/06/27 09:50:33;;;;;;;0.20;0.20;;;24.10;93.20;;;;;;5135798;27;20482;-72
2023/06/27 09:53:00;;;;;;;0.20;0.20;;;24.00;92.30;;;;;;5136077;27;20116;-71
2023/06/27 09:55:26;;;;;;;0.20;0.20;;;23.80;93.10;;;;;;5135614;27;20046;-72
2023/06/27 09:57:52;;;;;;;0.30;0.30;;;23.80;93.80;;;;;;5135759;27;20445;-71
2023/06/27 10:00:20;;;;;;;0.20;0.20;;;23.80;93.40;;;;;;5135774;27;20043;-72
2023/06/27 10:02:50;;;;;;;0.20;0.20;;;23.60;93.30;;;;;;5136183;27;20156;-71
2023/06/27 10:05:17;;;;;;;0.20;0.20;;;23.60;93.70;;;;;;5135841;27;20047;-72
2023/06/27 10:07:44;;;;;;;0.30;0.30;;;23.60;93.90;;;;;;5135568;27;20470;-72
2023/06/27 10:10:11;;;;;;;0.20;0.20;;;23.70;93.70;;;;;;5135587;27;20478;-72
2023/06/27 10:12:36;;;;;;;;;;;24.00;93.80;;;;;;5136456;27;20045;-72
2023/06/27 10:15:04;;;;;;;0.20;0.20;;;24.10;92.90;;;;;;5135594;27;19915;-72
2023/06/27 10:17:30;;;;;;;0.20;0.20;;;24.40;93.30;;;;;;5135205;27;20050;-72
2023/06/27 10:19:57;;;;;;;0.20;0.20;;;24.70;93.30;;;;;;5135468;27;20035;-71
2023/06/27 10:22:29;;;;;;;0.20;0.20;;;25.00;93.20;;;;;;5135379;27;20367;-71
2023/06/27 10:24:59;;;;;;;0.20;0.20;;;25.10;92.70;;;;;;5135353;27;20035;-71
2023/06/27 10:27:25;;;;;;;0.20;0.20;;;25.30;92.60;;;;;;5135796;27;20387;-72
2023/06/27 10:29:51;;;;;;;0.20;0.20;;;25.30;92.40;;;;;;5135306;27;20062;-72
2023/06/27 10:32:18;;;;;;;0.20;0.20;;;25.50;92.20;;;;;;5135365;27;20456;-72
2023/06/27 10:34:45;;;;;;;0.20;0.20;;;25.60;93.10;;;;;;5135205;27;20273;-72
2023/06/27 10:37:20;;;;;;;0.20;0.20;;;25.60;92.80;;;;;;5135081;27;20482;-72
2023/06/27 10:39:55;;;;;;;0.20;0.20;;;25.60;92.50;;;;;;5135874;27;20038;-72
2023/06/27 10:42:21;;;;;;;0.28;0.28;;;25.60;93.10;;;;;;5135672;27;20062;-72
2023/06/27 10:45:12;;;;;;;0.20;0.20;;;25.50;92.60;;;;;;5134982;27;20471;-72
2023/06/27 10:47:44;;;;;;;0.20;0.20;;;25.40;92.20;;;;;;5135073;27;20122;-72
2023/06/27 10:50:21;;;;;;;0.20;0.20;;;25.20;92.60;;;;;;5134848;27;20134;-72
2023/06/27 10:53:06;;;;;;;0.20;0.20;;;25.30;93.20;;;;;;5135022;27;20027;-71
2023/06/27 10:55:32;;;;;;;0.20;0.20;;;25.20;92.60;;;;;;5135043;27;20043;-72
2023/06/27 10:58:13;;;;;;;0.20;0.20;;;25.40;93.10;;;;;;5135028;27;20039;-72
2023/06/27 11:00:44;;;;;;;0.20;0.20;;;25.60;93.00;;;;;;5134884;27;20039;-72
2023/06/27 11:03:10;;;;;;;0.20;0.20;;;25.70;92.20;;;;;;5134542;27;20043;-72
2023/06/27 11:05:38;;;;;;;0.20;0.20;;;25.80;92.30;;;;;;5134894;27;20070;-71
2023/06/27 11:08:08;;;;;;;0.20;0.20;;;25.70;90.70;;;;;;5134791;27;20047;-72
2023/06/27 11:10:34;;;;;;;0.20;0.20;;;25.80;91.30;;;;;;5134830;28;20043;-72
2023/06/27 11:13:18;;;;;;;0.20;0.20;;;25.90;91.50;;;;;;5134630;28;20084;-72
2023/06/27 11:15:45;;;;;;;0.75;0.75;;;26.00;91.70;;;;;;5134680;28;20078;-72
2023/06/27 11:18:15;;;;;;;0.20;0.20;;;26.00;91.40;;;;;;5134454;28;20041;-72
2023/06/27 11:20:42;;;;;;;0.20;0.20;;;25.60;91.10;;;;;;5134895;28;20348;-72
2023/06/27 11:23:08;;;;;;;0.20;0.20;;;25.50;91.10;;;;;;5134492;28;20466;-72
2023/06/27 11:25:42;;;;;;;1.02;1.02;;;25.50;92.30;;;;;;5134555;28;20059;-72
2023/06/27 11:28:19;;;;;;;0.32;0.32;;;25.50;92.80;;;;;;5134535;28;20042;-72
2023/06/27 11:30:45;;;;;;;0.30;0.30;;;25.70;91.10;;;;;;5134897;28;20077;-71
2023/06/27 11:33:14;;;;;;;;;;;25.70;92.20;;;;;;5135167;28;20035;-71
2023/06/27 11:35:40;;;;;;;0.20;0.20;;;25.60;91.90;;;;;;5134523;28;20377;-72
2023/06/27 11:38:07;;;;;;;0.20;0.20;;;25.50;91.60;;;;;;5134464;28;20035;-72
2023/06/27 11:40:33;;;;;;;0.20;0.20;;;25.60;92.00;;;;;;5134506;28;20110;-72
2023/06/27 11:43:03;;;;;;;0.30;0.30;;;25.60;91.80;;;;;;5115722;28;20073;-73
2023/06/27 11:45:31;;;;;;;0.20;0.20;;;25.40;91.70;;;;;;5134454;28;20038;-72
2023/06/27 11:47:58;;;;;;;0.20;0.20;;;25.40;92.10;;;;;;5134370;28;20047;-72
2023/06/27 11:50:24;;;;;;;0.20;0.20;;;25.50;91.80;;;;;;5134344;28;20462;-72
2023/06/27 11:52:51;;;;;;;0.20;0.20;;;25.70;91.90;;;;;;5116171;28;20122;-72
2023/06/27 11:55:16;;;;;;;0.20;0.20;;;25.80;92.30;;;;;;5134246;28;20050;-72
2023/06/27 11:57:55;;;;;;;0.30;0.30;;;25.70;91.20;;;;;;5134169;28;20031;-71
2023/06/27 12:00:28;;;;;;;0.20;0.20;;;25.70;91.20;;;;;;5134559;28;20110;-72
2023/06/27 12:03:03;;;;;;;0.35;0.35;;;25.50;91.60;;;;;;5150401;27;20510;-71
2023/06/27 12:05:28;;;;;;;0.20;0.20;;;25.30;91.50;;;;;;5134056;27;20031;-73
2023/06/27 12:08:02;;;;;;;0.20;0.20;;;25.00;91.70;;;;;;5137177;27;20095;-72
2023/06/27 12:10:34;;;;;;;0.20;0.20;;;24.90;91.90;;;;;;5137834;27;20614;-72
2023/06/27 12:13:03;;;;;;;0.50;0.50;;;24.60;93.10;;;;;;5138036;27;20467;-71
2023/06/27 12:15:29;;;;;;;0.30;0.30;;;24.30;92.90;;;;;;5138293;27;20042;-72
2023/06/27 12:18:00;;;;;;;0.30;0.30;;;24.10;93.70;;;;;;5137801;27;20080;-72
2023/06/27 12:20:27;;;;;;;3.10;1.20;;;23.80;93.70;;;;;;5137826;27;20538;-72
2023/06/27 12:22:52;;;;;;;0.20;0.20;;;23.50;94.20;;;;;;5138037;27;20387;-72
2023/06/27 12:25:18;;;;;;;0.30;0.30;;;23.60;94.40;;;;;;5137923;27;20035;-72
2023/06/27 12:27:44;;;;;;;0.20;0.20;;;23.70;94.10;;;;;;5137811;27;20122;-72
2023/06/27 12:30:11;;;;;;;0.20;0.20;;;23.80;93.90;;;;;;5137730;27;20481;-71
2023/06/27 12:32:38;;;;;;;0.20;0.20;;;24.00;94.20;;;;;;5119542;27;20039;-72
2023/06/27 12:35:04;;;;;;;0.30;0.30;;;24.00;93.60;;;;;;5137265;27;20467;-71
2023/06/27 12:37:33;;;;;;;0.30;0.30;;;23.90;94.20;;;;;;5137872;27;20142;-72
2023/06/27 12:39:59;;;;;;;0.20;0.20;;;23.90;94.70;;;;;;5137312;27;20482;-71
2023/06/27 12:42:25;;;;;;;0.20;0.20;;;23.90;94.50;;;;;;5137387;27;20035;-72
2023/06/27 12:44:54;;;;;;;0.20;0.20;;;23.80;94.10;;;;;;5118954;27;20113;-72
2023/06/27 12:47:20;;;;;;;0.20;0.20;;;23.80;94.20;;;;;;5137271;27;20038;-72
2023/06/27 12:49:46;;;;;;;0.35;0.35;;;23.80;94.70;;;;;;5137713;27;20121;-72